DBMPY EDDK-LFRS
Flight info
| Callsign | DBMPY |
|---|---|
| Flight time | 1h 12m |
| Altitude | 34000 |
| Route | NVO3W NVO DCT LNO DCT BSN DCT DIDAK UZ15 ARDOD A5 VALAX |
| Aircraft | C750/M-SBDE3FGHRWXY/S |
Departure
| Time | 2026-04-22 19:09 |
|---|---|
| Airport | Cologne Bonn Airport (EDDK) |
Arrival
| Time | 2026-04-22 20:21 |
|---|---|
| Airport | Nantes Atlantique Airport (LFRS) |
| Time | Latitude | Longitude | Altitude | Speed | Heading |
|---|---|---|---|---|---|
| 2026-04-22 18:34 | 50.87219 | 7.12441 | 230 ft | 0 kts | 317° |
| 2026-04-22 18:56 | 50.87220 | 7.12441 | 229 ft | 1 kts | 316° |
| 2026-04-22 18:56 | 50.87219 | 7.12435 | 229 ft | 1 kts | 274° |
| 2026-04-22 18:56 | 50.87214 | 7.12431 | 233 ft | 1 kts | 202° |
| 2026-04-22 18:57 | 50.87195 | 7.12452 | 232 ft | 7 kts | 140° |
| 2026-04-22 18:57 | 50.87151 | 7.12435 | 233 ft | 9 kts | 226° |
| 2026-04-22 18:57 | 50.87167 | 7.12324 | 232 ft | 15 kts | 321° |
| 2026-04-22 18:57 | 50.87264 | 7.12293 | 227 ft | 16 kts | 15° |
| 2026-04-22 18:58 | 50.87368 | 7.12345 | 228 ft | 15 kts | 18° |
| 2026-04-22 18:58 | 50.87465 | 7.12396 | 227 ft | 14 kts | 18° |
| 2026-04-22 18:58 | 50.87552 | 7.12437 | 228 ft | 9 kts | 17° |
| 2026-04-22 18:58 | 50.87602 | 7.12466 | 227 ft | 7 kts | 18° |
| 2026-04-22 18:59 | 50.87648 | 7.12488 | 227 ft | 6 kts | 18° |
| 2026-04-22 18:59 | 50.87688 | 7.12508 | 227 ft | 6 kts | 16° |
| 2026-04-22 18:59 | 50.87722 | 7.12525 | 227 ft | 6 kts | 20° |
| 2026-04-22 18:59 | 50.87761 | 7.12583 | 227 ft | 10 kts | 65° |
| 2026-04-22 19:00 | 50.87782 | 7.12701 | 227 ft | 11 kts | 76° |
| 2026-04-22 19:00 | 50.87799 | 7.12816 | 228 ft | 9 kts | 76° |
| 2026-04-22 19:00 | 50.87810 | 7.12887 | 231 ft | 5 kts | 76° |
| 2026-04-22 19:00 | 50.87818 | 7.12935 | 233 ft | 4 kts | 77° |
| 2026-04-22 19:01 | 50.87824 | 7.12980 | 235 ft | 4 kts | 77° |
| 2026-04-22 19:01 | 50.87827 | 7.13004 | 236 ft | 0 kts | 77° |
| 2026-04-22 19:06 | 50.87828 | 7.13010 | 236 ft | 2 kts | 76° |
| 2026-04-22 19:07 | 50.87838 | 7.13068 | 238 ft | 2 kts | 75° |
| 2026-04-22 19:07 | 50.87846 | 7.13112 | 239 ft | 4 kts | 75° |
| 2026-04-22 19:07 | 50.87853 | 7.13161 | 240 ft | 6 kts | 84° |
| 2026-04-22 19:07 | 50.87845 | 7.13201 | 241 ft | 1 kts | 126° |
| 2026-04-22 19:08 | 50.87844 | 7.13203 | 241 ft | 0 kts | 135° |
| 2026-04-22 19:08 | 50.87758 | 7.13327 | 244 ft | 61 kts | 139° |
| 2026-04-22 19:08 | 50.87177 | 7.14179 | 305 ft | 145 kts | 135° |
| 2026-04-22 19:09 | 50.86443 | 7.15174 | 1080 ft | 140 kts | 135° |
| 2026-04-22 19:09 | 50.85697 | 7.16288 | 1644 ft | 155 kts | 132° |
| 2026-04-22 19:09 | 50.85147 | 7.17091 | 1999 ft | 162 kts | 133° |
| 2026-04-22 19:09 | 50.84010 | 7.18682 | 2659 ft | 167 kts | 134° |
| 2026-04-22 19:10 | 50.83133 | 7.19901 | 3157 ft | 169 kts | 136° |
| 2026-04-22 19:10 | 50.82251 | 7.21131 | 3660 ft | 170 kts | 136° |
| 2026-04-22 19:10 | 50.81326 | 7.22424 | 4175 ft | 186 kts | 136° |
| 2026-04-22 19:10 | 50.80297 | 7.23828 | 4716 ft | 204 kts | 140° |
| 2026-04-22 19:11 | 50.78896 | 7.24542 | 5132 ft | 227 kts | 177° |
| 2026-04-22 19:11 | 50.77321 | 7.24131 | 5625 ft | 240 kts | 200° |
| 2026-04-22 19:11 | 50.76033 | 7.22446 | 6085 ft | 245 kts | 234° |
| 2026-04-22 19:11 | 50.75297 | 7.20007 | 6638 ft | 247 kts | 249° |
| 2026-04-22 19:12 | 50.74997 | 7.17269 | 7090 ft | 267 kts | 276° |
| 2026-04-22 19:12 | 50.75385 | 7.14318 | 7645 ft | 279 kts | 285° |
| 2026-04-22 19:12 | 50.75861 | 7.11307 | 8219 ft | 285 kts | 285° |
| 2026-04-22 19:12 | 50.76281 | 7.08252 | 8764 ft | 290 kts | 283° |
| 2026-04-22 19:13 | 50.76687 | 7.05118 | 9301 ft | 292 kts | 283° |
| 2026-04-22 19:13 | 50.77117 | 7.01953 | 9827 ft | 296 kts | 284° |
| 2026-04-22 19:13 | 50.77559 | 6.98757 | 10343 ft | 299 kts | 284° |
| 2026-04-22 19:13 | 50.78008 | 6.95463 | 10835 ft | 314 kts | 284° |
| 2026-04-22 19:14 | 50.78470 | 6.92036 | 11338 ft | 330 kts | 284° |
| 2026-04-22 19:14 | 50.78961 | 6.88401 | 11855 ft | 345 kts | 284° |
| 2026-04-22 19:14 | 50.79471 | 6.84618 | 12383 ft | 357 kts | 284° |
| 2026-04-22 19:14 | 50.79995 | 6.80711 | 12911 ft | 365 kts | 284° |
| 2026-04-22 19:15 | 50.80348 | 6.78072 | 13272 ft | 371 kts | 284° |
| 2026-04-22 19:15 | 50.81057 | 6.72764 | 14270 ft | 374 kts | 285° |
| 2026-04-22 19:15 | 50.81601 | 6.68683 | 14926 ft | 378 kts | 285° |
| 2026-04-22 19:15 | 50.81931 | 6.64525 | 15467 ft | 388 kts | 271° |
| 2026-04-22 19:16 | 50.81427 | 6.60312 | 16151 ft | 393 kts | 254° |
| 2026-04-22 19:16 | 50.80459 | 6.56315 | 16811 ft | 397 kts | 250° |
| 2026-04-22 19:16 | 50.79402 | 6.52251 | 17463 ft | 402 kts | 249° |
| 2026-04-22 19:16 | 50.78346 | 6.48119 | 18172 ft | 406 kts | 250° |
| 2026-04-22 19:17 | 50.77311 | 6.43947 | 18844 ft | 410 kts | 251° |
| 2026-04-22 19:17 | 50.76254 | 6.39730 | 19496 ft | 413 kts | 250° |
| 2026-04-22 19:17 | 50.75190 | 6.35569 | 20154 ft | 417 kts | 250° |
| 2026-04-22 19:17 | 50.74066 | 6.31165 | 20328 ft | 433 kts | 250° |
| 2026-04-22 19:18 | 50.72948 | 6.26750 | 20327 ft | 440 kts | 250° |
| 2026-04-22 19:18 | 50.71804 | 6.22249 | 20323 ft | 442 kts | 250° |
| 2026-04-22 19:18 | 50.70649 | 6.17751 | 20324 ft | 443 kts | 249° |
| 2026-04-22 19:18 | 50.69178 | 6.13467 | 20867 ft | 440 kts | 237° |
| 2026-04-22 19:19 | 50.67440 | 6.09633 | 22193 ft | 427 kts | 235° |
| 2026-04-22 19:19 | 50.65691 | 6.05793 | 22676 ft | 434 kts | 236° |
| 2026-04-22 19:19 | 50.63923 | 6.01956 | 23285 ft | 438 kts | 235° |
| 2026-04-22 19:19 | 50.62109 | 5.98069 | 23928 ft | 441 kts | 235° |
| 2026-04-22 19:20 | 50.60289 | 5.94153 | 24451 ft | 444 kts | 235° |
| 2026-04-22 19:20 | 50.58462 | 5.90202 | 25003 ft | 447 kts | 235° |
| 2026-04-22 19:20 | 50.56645 | 5.86287 | 25536 ft | 450 kts | 235° |
| 2026-04-22 19:20 | 50.54764 | 5.82259 | 26078 ft | 453 kts | 235° |
| 2026-04-22 19:21 | 50.52915 | 5.78299 | 26612 ft | 456 kts | 235° |
| 2026-04-22 19:21 | 50.51035 | 5.74268 | 27151 ft | 459 kts | 236° |
| 2026-04-22 19:21 | 50.49138 | 5.70210 | 27695 ft | 462 kts | 236° |
| 2026-04-22 19:21 | 50.47223 | 5.66126 | 28227 ft | 465 kts | 236° |
| 2026-04-22 19:22 | 50.45291 | 5.62013 | 28775 ft | 468 kts | 236° |
| 2026-04-22 19:22 | 50.43346 | 5.57874 | 29325 ft | 472 kts | 236° |
| 2026-04-22 19:22 | 50.41390 | 5.53716 | 29812 ft | 475 kts | 236° |
| 2026-04-22 19:22 | 50.39414 | 5.49527 | 30315 ft | 479 kts | 236° |
| 2026-04-22 19:23 | 50.37423 | 5.45314 | 30762 ft | 482 kts | 236° |
| 2026-04-22 19:23 | 50.35448 | 5.41138 | 31178 ft | 485 kts | 236° |
| 2026-04-22 19:23 | 50.33435 | 5.36890 | 31744 ft | 484 kts | 236° |
| 2026-04-22 19:23 | 50.31425 | 5.32658 | 32406 ft | 482 kts | 236° |
| 2026-04-22 19:24 | 50.29429 | 5.28459 | 33011 ft | 481 kts | 236° |
| 2026-04-22 19:24 | 50.27421 | 5.24236 | 33321 ft | 487 kts | 236° |
| 2026-04-22 19:24 | 50.25370 | 5.19929 | 33319 ft | 499 kts | 236° |
| 2026-04-22 19:24 | 50.23269 | 5.15534 | 33321 ft | 511 kts | 236° |
| 2026-04-22 19:25 | 50.21139 | 5.11088 | 33332 ft | 521 kts | 236° |
| 2026-04-22 19:25 | 50.16750 | 5.01939 | 33315 ft | 526 kts | 236° |
| 2026-04-22 19:26 | 50.12359 | 4.92821 | 33309 ft | 526 kts | 236° |
| 2026-04-22 19:26 | 50.07947 | 4.83683 | 33311 ft | 527 kts | 236° |
| 2026-04-22 19:27 | 50.03561 | 4.74640 | 33308 ft | 525 kts | 236° |
| 2026-04-22 19:27 | 49.99147 | 4.65561 | 33302 ft | 525 kts | 236° |
| 2026-04-22 19:28 | 49.94717 | 4.56487 | 33304 ft | 526 kts | 236° |
| 2026-04-22 19:28 | 49.90316 | 4.47500 | 33299 ft | 524 kts | 236° |
| 2026-04-22 19:29 | 49.85898 | 4.38509 | 33295 ft | 523 kts | 236° |
| 2026-04-22 19:29 | 49.82226 | 4.31062 | 33293 ft | 523 kts | 236° |
| 2026-04-22 19:30 | 49.78542 | 4.23608 | 33287 ft | 524 kts | 236° |
| 2026-04-22 19:30 | 49.73376 | 4.13193 | 33286 ft | 524 kts | 236° |
| 2026-04-22 19:31 | 49.68925 | 4.04252 | 33283 ft | 523 kts | 236° |
| 2026-04-22 19:31 | 49.64497 | 3.95390 | 33277 ft | 522 kts | 237° |
| 2026-04-22 19:32 | 49.60047 | 3.86510 | 33274 ft | 522 kts | 236° |
| 2026-04-22 19:32 | 49.55613 | 3.77693 | 33274 ft | 522 kts | 236° |
| 2026-04-22 19:33 | 49.51153 | 3.68848 | 33268 ft | 522 kts | 236° |
| 2026-04-22 19:33 | 49.46685 | 3.60026 | 33253 ft | 522 kts | 237° |
| 2026-04-22 19:34 | 49.42217 | 3.51232 | 33269 ft | 518 kts | 237° |
| 2026-04-22 19:34 | 49.37799 | 3.42555 | 33261 ft | 519 kts | 237° |
| 2026-04-22 19:35 | 49.33336 | 3.33830 | 33259 ft | 519 kts | 237° |
| 2026-04-22 19:35 | 49.28864 | 3.25110 | 33255 ft | 519 kts | 237° |
| 2026-04-22 19:36 | 49.24418 | 3.16472 | 33257 ft | 518 kts | 238° |
| 2026-04-22 19:36 | 49.20032 | 3.07751 | 33242 ft | 512 kts | 242° |
| 2026-04-22 19:37 | 49.16874 | 2.98188 | 33258 ft | 501 kts | 254° |
| 2026-04-22 19:37 | 49.14273 | 2.88280 | 33263 ft | 503 kts | 253° |
| 2026-04-22 19:38 | 49.11645 | 2.78360 | 33252 ft | 502 kts | 254° |
| 2026-04-22 19:38 | 49.09023 | 2.68448 | 33249 ft | 503 kts | 253° |
| 2026-04-22 19:39 | 49.06402 | 2.58633 | 33230 ft | 499 kts | 253° |
| 2026-04-22 19:39 | 49.03794 | 2.48867 | 33235 ft | 494 kts | 253° |
| 2026-04-22 19:40 | 49.01185 | 2.39162 | 33229 ft | 494 kts | 253° |
| 2026-04-22 19:40 | 48.98582 | 2.29507 | 33235 ft | 496 kts | 253° |
| 2026-04-22 19:41 | 48.95951 | 2.19800 | 33236 ft | 495 kts | 253° |
| 2026-04-22 19:41 | 48.93319 | 2.10121 | 33229 ft | 494 kts | 253° |
| 2026-04-22 19:42 | 48.90681 | 2.00458 | 33231 ft | 495 kts | 253° |
| 2026-04-22 19:42 | 48.88034 | 1.90811 | 33225 ft | 495 kts | 253° |
| 2026-04-22 19:43 | 48.84064 | 1.76403 | 33237 ft | 495 kts | 253° |
| 2026-04-22 19:43 | 48.81383 | 1.66725 | 33233 ft | 497 kts | 252° |
| 2026-04-22 19:44 | 48.78690 | 1.57052 | 33230 ft | 497 kts | 252° |
| 2026-04-22 19:44 | 48.76007 | 1.47443 | 33229 ft | 497 kts | 252° |
| 2026-04-22 19:45 | 48.73301 | 1.37795 | 33231 ft | 497 kts | 252° |
| 2026-04-22 19:45 | 48.70592 | 1.28171 | 33216 ft | 495 kts | 251° |
| 2026-04-22 19:46 | 48.69255 | 1.23453 | 32739 ft | 477 kts | 251° |
| 2026-04-22 19:46 | 48.67975 | 1.18950 | 32203 ft | 458 kts | 251° |
| 2026-04-22 19:46 | 48.66739 | 1.14581 | 31669 ft | 443 kts | 251° |
| 2026-04-22 19:46 | 48.65553 | 1.10382 | 31159 ft | 439 kts | 251° |
| 2026-04-22 19:47 | 48.64341 | 1.06107 | 30640 ft | 446 kts | 251° |
| 2026-04-22 19:47 | 48.63102 | 1.01765 | 30143 ft | 450 kts | 250° |
| 2026-04-22 19:47 | 48.61857 | 0.97420 | 29583 ft | 450 kts | 250° |
| 2026-04-22 19:47 | 48.60618 | 0.93092 | 29026 ft | 447 kts | 250° |
| 2026-04-22 19:48 | 48.59390 | 0.88801 | 28497 ft | 444 kts | 250° |
| 2026-04-22 19:48 | 48.58165 | 0.84528 | 27935 ft | 442 kts | 250° |
| 2026-04-22 19:48 | 48.56942 | 0.80280 | 27412 ft | 448 kts | 250° |
| 2026-04-22 19:48 | 48.55677 | 0.75876 | 27218 ft | 459 kts | 249° |
| 2026-04-22 19:49 | 48.54394 | 0.71439 | 27225 ft | 463 kts | 249° |
| 2026-04-22 19:49 | 48.53113 | 0.67016 | 27221 ft | 465 kts | 249° |
| 2026-04-22 19:49 | 48.51815 | 0.62534 | 27217 ft | 466 kts | 249° |
| 2026-04-22 19:49 | 48.50422 | 0.58124 | 27199 ft | 469 kts | 244° |
| 2026-04-22 19:50 | 48.48590 | 0.54021 | 27198 ft | 472 kts | 235° |
| 2026-04-22 19:50 | 48.46621 | 0.50072 | 27311 ft | 468 kts | 237° |
| 2026-04-22 19:50 | 48.44838 | 0.46006 | 27253 ft | 473 kts | 241° |
| 2026-04-22 19:50 | 48.42923 | 0.41956 | 27199 ft | 470 kts | 235° |
| 2026-04-22 19:51 | 48.40924 | 0.38095 | 27211 ft | 467 kts | 234° |
| 2026-04-22 19:51 | 48.38901 | 0.34256 | 27207 ft | 469 kts | 233° |
| 2026-04-22 19:51 | 48.36784 | 0.30499 | 27207 ft | 470 kts | 231° |
| 2026-04-22 19:51 | 48.34652 | 0.26777 | 27205 ft | 470 kts | 232° |
| 2026-04-22 19:52 | 48.32564 | 0.22987 | 27205 ft | 469 kts | 233° |
| 2026-04-22 19:52 | 48.30495 | 0.19178 | 27199 ft | 470 kts | 233° |
| 2026-04-22 19:52 | 48.28420 | 0.15453 | 27193 ft | 470 kts | 232° |
| 2026-04-22 19:52 | 48.26301 | 0.11706 | 27182 ft | 470 kts | 232° |
| 2026-04-22 19:53 | 48.24195 | 0.07937 | 27196 ft | 470 kts | 232° |
| 2026-04-22 19:53 | 48.22080 | 0.04195 | 27188 ft | 470 kts | 231° |
| 2026-04-22 19:53 | 48.19959 | 0.00546 | 27190 ft | 469 kts | 231° |
| 2026-04-22 19:53 | 48.17797 | -0.03106 | 27179 ft | 467 kts | 230° |
| 2026-04-22 19:54 | 48.15649 | -0.06766 | 27182 ft | 466 kts | 230° |
| 2026-04-22 19:54 | 48.13515 | -0.10446 | 27174 ft | 467 kts | 231° |
| 2026-04-22 19:54 | 48.11377 | -0.14108 | 27173 ft | 467 kts | 230° |
| 2026-04-22 19:54 | 48.09227 | -0.17751 | 27174 ft | 467 kts | 230° |
| 2026-04-22 19:55 | 48.07075 | -0.21402 | 27174 ft | 467 kts | 230° |
| 2026-04-22 19:55 | 48.04933 | -0.25053 | 27162 ft | 467 kts | 230° |
| 2026-04-22 19:55 | 48.02813 | -0.28658 | 27163 ft | 467 kts | 230° |
| 2026-04-22 19:55 | 48.00661 | -0.32300 | 27157 ft | 467 kts | 230° |
| 2026-04-22 19:56 | 47.98512 | -0.35928 | 27157 ft | 465 kts | 230° |
| 2026-04-22 19:56 | 47.96366 | -0.39557 | 27102 ft | 462 kts | 230° |
| 2026-04-22 19:56 | 47.94274 | -0.43088 | 26524 ft | 445 kts | 230° |
| 2026-04-22 19:56 | 47.92260 | -0.46481 | 25947 ft | 432 kts | 230° |
| 2026-04-22 19:57 | 47.90287 | -0.49805 | 25386 ft | 425 kts | 230° |
| 2026-04-22 19:57 | 47.88332 | -0.53096 | 24833 ft | 423 kts | 230° |
| 2026-04-22 19:57 | 47.86377 | -0.56378 | 24269 ft | 422 kts | 230° |
| 2026-04-22 19:57 | 47.84454 | -0.59600 | 23715 ft | 420 kts | 230° |
| 2026-04-22 19:58 | 47.82523 | -0.62836 | 23125 ft | 416 kts | 230° |
| 2026-04-22 19:58 | 47.80608 | -0.66039 | 22576 ft | 413 kts | 230° |
| 2026-04-22 19:58 | 47.78698 | -0.69232 | 22024 ft | 410 kts | 230° |
| 2026-04-22 19:58 | 47.76807 | -0.72389 | 21483 ft | 408 kts | 230° |
| 2026-04-22 19:59 | 47.74875 | -0.75472 | 20930 ft | 406 kts | 224° |
| 2026-04-22 20:00 | 47.60663 | -0.88244 | 17373 ft | 388 kts | 210° |
| 2026-04-22 20:00 | 47.58335 | -0.90193 | 16758 ft | 386 kts | 211° |
| 2026-04-22 20:01 | 47.55991 | -0.92151 | 16146 ft | 386 kts | 211° |
| 2026-04-22 20:01 | 47.53648 | -0.94098 | 15544 ft | 383 kts | 211° |
| 2026-04-22 20:01 | 47.51333 | -0.96036 | 14965 ft | 380 kts | 210° |
| 2026-04-22 20:01 | 47.49058 | -0.97954 | 14398 ft | 379 kts | 211° |
| 2026-04-22 20:02 | 47.46764 | -0.99888 | 13816 ft | 379 kts | 211° |
| 2026-04-22 20:02 | 47.44489 | -1.01811 | 13183 ft | 374 kts | 211° |
| 2026-04-22 20:02 | 47.42252 | -1.03710 | 12564 ft | 368 kts | 211° |
| 2026-04-22 20:02 | 47.40030 | -1.05586 | 11955 ft | 365 kts | 211° |
| 2026-04-22 20:03 | 47.37872 | -1.07394 | 11364 ft | 335 kts | 211° |
| 2026-04-22 20:03 | 47.35966 | -1.08981 | 10777 ft | 297 kts | 211° |
| 2026-04-22 20:03 | 47.34182 | -1.10477 | 10180 ft | 303 kts | 211° |
| 2026-04-22 20:03 | 47.32341 | -1.12010 | 9568 ft | 307 kts | 211° |
| 2026-04-22 20:04 | 47.30487 | -1.13548 | 8939 ft | 301 kts | 211° |
| 2026-04-22 20:04 | 47.28688 | -1.15059 | 8322 ft | 292 kts | 211° |
| 2026-04-22 20:04 | 47.26962 | -1.16530 | 7966 ft | 280 kts | 211° |
| 2026-04-22 20:04 | 47.25322 | -1.17943 | 7711 ft | 275 kts | 211° |
| 2026-04-22 20:05 | 47.23670 | -1.19374 | 7464 ft | 275 kts | 211° |
| 2026-04-22 20:05 | 47.22012 | -1.20819 | 7226 ft | 278 kts | 211° |
| 2026-04-22 20:05 | 47.20351 | -1.22273 | 7109 ft | 275 kts | 211° |
| 2026-04-22 20:05 | 47.18699 | -1.23725 | 7114 ft | 277 kts | 211° |
| 2026-04-22 20:06 | 47.17037 | -1.25194 | 7113 ft | 280 kts | 210° |
| 2026-04-22 20:06 | 47.15393 | -1.26670 | 7112 ft | 280 kts | 211° |
| 2026-04-22 20:06 | 47.13724 | -1.28185 | 7115 ft | 281 kts | 211° |
| 2026-04-22 20:06 | 47.12062 | -1.29702 | 7113 ft | 281 kts | 211° |
| 2026-04-22 20:07 | 47.10399 | -1.31216 | 7117 ft | 281 kts | 211° |
| 2026-04-22 20:07 | 47.08737 | -1.32722 | 7108 ft | 280 kts | 211° |
| 2026-04-22 20:07 | 47.07068 | -1.34230 | 7108 ft | 281 kts | 211° |
| 2026-04-22 20:07 | 47.05418 | -1.35725 | 7107 ft | 282 kts | 211° |
| 2026-04-22 20:08 | 47.03756 | -1.37242 | 7105 ft | 281 kts | 211° |
| 2026-04-22 20:08 | 47.02087 | -1.38760 | 7105 ft | 282 kts | 211° |
| 2026-04-22 20:08 | 47.00421 | -1.40269 | 7105 ft | 281 kts | 211° |
| 2026-04-22 20:08 | 46.98759 | -1.41769 | 7103 ft | 282 kts | 211° |
| 2026-04-22 20:09 | 46.97094 | -1.43278 | 7103 ft | 281 kts | 210° |
| 2026-04-22 20:09 | 46.95427 | -1.44797 | 7105 ft | 282 kts | 211° |
| 2026-04-22 20:09 | 46.93768 | -1.46312 | 7104 ft | 281 kts | 211° |
| 2026-04-22 20:09 | 46.92106 | -1.47828 | 7102 ft | 280 kts | 211° |
| 2026-04-22 20:10 | 46.90443 | -1.49341 | 7103 ft | 282 kts | 211° |
| 2026-04-22 20:10 | 46.88797 | -1.50846 | 6995 ft | 285 kts | 210° |
| 2026-04-22 20:10 | 46.87096 | -1.52406 | 6634 ft | 289 kts | 210° |
| 2026-04-22 20:10 | 46.85405 | -1.53973 | 6269 ft | 285 kts | 210° |
| 2026-04-22 20:11 | 46.83745 | -1.55516 | 5886 ft | 280 kts | 211° |
| 2026-04-22 20:11 | 46.82123 | -1.57005 | 5508 ft | 276 kts | 210° |
| 2026-04-22 20:11 | 46.80537 | -1.58566 | 5086 ft | 274 kts | 219° |
| 2026-04-22 20:11 | 46.79527 | -1.60940 | 4571 ft | 281 kts | 253° |
| 2026-04-22 20:12 | 46.79591 | -1.63748 | 4069 ft | 279 kts | 289° |
| 2026-04-22 20:12 | 46.80675 | -1.65959 | 3610 ft | 264 kts | 322° |
| 2026-04-22 20:12 | 46.81656 | -1.66958 | 3398 ft | 255 kts | 329° |
| 2026-04-22 20:12 | 46.83603 | -1.68684 | 3085 ft | 236 kts | 335° |
| 2026-04-22 20:13 | 46.85084 | -1.69409 | 3091 ft | 217 kts | 350° |
| 2026-04-22 20:13 | 46.86551 | -1.69906 | 3098 ft | 217 kts | 351° |
| 2026-04-22 20:13 | 46.88042 | -1.70422 | 3104 ft | 222 kts | 351° |
| 2026-04-22 20:13 | 46.89541 | -1.70940 | 3095 ft | 215 kts | 351° |
| 2026-04-22 20:14 | 46.90962 | -1.71433 | 3086 ft | 205 kts | 351° |
| 2026-04-22 20:14 | 46.91875 | -1.71752 | 3091 ft | 200 kts | 351° |
| 2026-04-22 20:14 | 46.93634 | -1.72373 | 3082 ft | 194 kts | 351° |
| 2026-04-22 20:14 | 46.94963 | -1.72847 | 3040 ft | 201 kts | 351° |
| 2026-04-22 20:15 | 46.95873 | -1.73170 | 2978 ft | 203 kts | 351° |
| 2026-04-22 20:15 | 46.97252 | -1.73680 | 2981 ft | 204 kts | 351° |
| 2026-04-22 20:15 | 46.98615 | -1.73737 | 2902 ft | 192 kts | 25° |
| 2026-04-22 20:15 | 46.99760 | -1.72865 | 2995 ft | 190 kts | 33° |
| 2026-04-22 20:16 | 47.00951 | -1.71970 | 2972 ft | 193 kts | 32° |
| 2026-04-22 20:16 | 47.02120 | -1.71105 | 2721 ft | 174 kts | 33° |
| 2026-04-22 20:16 | 47.03133 | -1.70352 | 2501 ft | 156 kts | 35° |
| 2026-04-22 20:16 | 47.04074 | -1.69630 | 2295 ft | 144 kts | 37° |
| 2026-04-22 20:17 | 47.04893 | -1.69017 | 2113 ft | 122 kts | 39° |
| 2026-04-22 20:17 | 47.05614 | -1.68458 | 1968 ft | 115 kts | 39° |
| 2026-04-22 20:17 | 47.06318 | -1.67922 | 1829 ft | 114 kts | 39° |
| 2026-04-22 20:17 | 47.07027 | -1.67383 | 1675 ft | 114 kts | 39° |
| 2026-04-22 20:18 | 47.07724 | -1.66853 | 1519 ft | 114 kts | 40° |
| 2026-04-22 20:18 | 47.08429 | -1.66314 | 1362 ft | 115 kts | 39° |
| 2026-04-22 20:18 | 47.09152 | -1.65763 | 1210 ft | 119 kts | 38° |
| 2026-04-22 20:18 | 47.09882 | -1.65208 | 1044 ft | 116 kts | 36° |
| 2026-04-22 20:19 | 47.10603 | -1.64658 | 891 ft | 117 kts | 34° |
| 2026-04-22 20:19 | 47.11322 | -1.64117 | 735 ft | 118 kts | 30° |
| 2026-04-22 20:19 | 47.12057 | -1.63548 | 575 ft | 120 kts | 30° |
| 2026-04-22 20:19 | 47.12799 | -1.62987 | 408 ft | 120 kts | 27° |
| 2026-04-22 20:20 | 47.13555 | -1.62423 | 250 ft | 121 kts | 31° |
| 2026-04-22 20:20 | 47.14274 | -1.61870 | 101 ft | 110 kts | 31° |
| 2026-04-22 20:20 | 47.14866 | -1.61409 | 95 ft | 79 kts | 26° |
| 2026-04-22 20:20 | 47.15235 | -1.61130 | 96 ft | 53 kts | 28° |
| 2026-04-22 20:21 | 47.15536 | -1.60907 | 97 ft | 39 kts | 27° |
| 2026-04-22 20:21 | 47.15669 | -1.60748 | 96 ft | 19 kts | 90° |
| 2026-04-22 20:21 | 47.15643 | -1.60655 | 98 ft | 0 kts | 124° |
| 2026-04-22 20:22 | 47.15640 | -1.60649 | 98 ft | 0 kts | 122° |
| 2026-04-22 20:22 | 47.15636 | -1.60638 | 98 ft | 2 kts | 121° |
| 2026-04-22 20:22 | 47.15629 | -1.60601 | 98 ft | 8 kts | 90° |
| 2026-04-22 20:22 | 47.15660 | -1.60547 | 97 ft | 7 kts | 22° |
| 2026-04-22 20:23 | 47.15720 | -1.60502 | 96 ft | 11 kts | 27° |
| 2026-04-22 20:23 | 47.15786 | -1.60450 | 96 ft | 12 kts | 28° |
| 2026-04-22 20:23 | 47.15864 | -1.60390 | 95 ft | 12 kts | 28° |
| 2026-04-22 20:23 | 47.15952 | -1.60321 | 95 ft | 16 kts | 28° |
| 2026-04-22 20:24 | 47.16041 | -1.60254 | 97 ft | 14 kts | 30° |
| 2026-04-22 20:24 | 47.16040 | -1.60159 | 97 ft | 12 kts | 117° |